createdAt,value
2023-03-04T00:00:59.827Z,7.03
2023-03-04T00:05:56.600Z,7.13
2023-03-04T00:10:53.870Z,7.24
2023-03-04T00:15:51.048Z,7.04
2023-03-04T00:20:49.091Z,7.21
2023-03-04T00:25:45.744Z,6.97
2023-03-04T00:30:43.155Z,7.01
2023-03-04T00:35:40.139Z,7.06
2023-03-04T00:40:38.731Z,6.88
2023-03-04T00:45:35.905Z,7.12
2023-03-04T00:50:34.323Z,6.85
2023-03-04T00:55:31.273Z,7.16
2023-03-04T01:00:27.899Z,6.95
2023-03-04T01:05:25.574Z,7.05
2023-03-04T01:10:24.171Z,7.12
2023-03-04T01:15:21.044Z,7.11
2023-03-04T01:20:17.910Z,6.91
2023-03-04T01:25:14.675Z,7.03
2023-03-04T01:30:12.713Z,7.05
2023-03-04T01:35:09.614Z,6.96
2023-03-04T01:40:06.913Z,7.09
2023-03-04T01:45:04.042Z,6.99
2023-03-04T01:50:03.191Z,6.94
2023-03-04T01:55:00.020Z,7.13
2023-03-04T02:00:18.840Z,7.20
2023-03-04T02:05:16.410Z,7.18
2023-03-04T02:10:13.023Z,7.17
2023-03-04T02:15:13.432Z,7.38
2023-03-04T02:20:17.726Z,7.33
2023-03-04T02:25:18.612Z,7.32
2023-03-04T02:30:16.214Z,7.37
2023-03-04T02:35:18.965Z,7.53
2023-03-04T02:40:18.524Z,7.35
2023-03-04T02:45:31.690Z,7.38
2023-03-04T02:50:30.709Z,7.14
2023-03-04T02:55:28.140Z,7.06
2023-03-04T03:00:27.836Z,7.19
2023-03-04T03:05:27.679Z,7.03
2023-03-04T03:10:25.687Z,6.95
2023-03-04T03:15:22.877Z,6.88
2023-03-04T03:20:20.064Z,6.75
2023-03-04T03:25:18.029Z,6.75
2023-03-04T03:30:15.851Z,6.80
2023-03-04T03:35:12.896Z,6.96
2023-03-04T03:40:11.795Z,6.65
2023-03-04T03:45:10.017Z,6.89
2023-03-04T03:50:07.088Z,6.90
2023-03-04T03:55:04.047Z,6.94
2023-03-04T04:00:00.697Z,6.94
2023-03-04T04:04:57.991Z,7.11
2023-03-04T04:09:54.615Z,7.00
2023-03-04T04:14:51.474Z,7.08
2023-03-04T04:19:48.235Z,6.88
2023-03-04T04:24:45.528Z,7.06
2023-03-04T04:29:42.150Z,7.06
2023-03-04T04:34:39.215Z,7.12
2023-03-04T04:39:36.103Z,7.25
2023-03-04T04:44:34.685Z,7.31
2023-03-04T04:49:31.409Z,7.47
2023-03-04T04:54:28.298Z,7.72
2023-03-04T04:59:25.111Z,7.52
2023-03-04T05:04:22.648Z,7.52
2023-03-04T05:09:20.578Z,7.52
2023-03-04T05:14:17.534Z,7.42
2023-03-04T05:19:17.272Z,7.51
2023-03-04T05:24:14.598Z,7.27
2023-03-04T05:29:11.237Z,7.29
2023-03-04T05:34:08.304Z,7.26
2023-03-04T05:39:05.196Z,7.23
2023-03-04T05:44:02.640Z,7.30
2023-03-04T05:48:59.452Z,7.26
2023-03-04T05:53:59.103Z,7.28
2023-03-04T05:58:56.787Z,7.12
2023-03-04T06:03:57.339Z,7.24
2023-03-04T06:08:54.054Z,7.17
2023-03-04T06:13:50.961Z,7.19
2023-03-04T06:18:48.945Z,7.17
2023-03-04T06:23:51.052Z,7.28
2023-03-04T06:28:47.830Z,7.30
2023-03-04T06:33:45.767Z,7.32
2023-03-04T06:38:42.524Z,7.32
2023-03-04T06:43:40.080Z,7.29
2023-03-04T06:48:37.038Z,7.31
2023-03-04T06:53:33.600Z,7.47
2023-03-04T06:58:30.452Z,7.60
2023-03-04T07:03:28.970Z,7.85
2023-03-04T07:08:25.769Z,7.88
2023-03-04T07:13:22.711Z,7.92
2023-03-04T07:18:19.704Z,7.92
2023-03-04T07:23:17.201Z,8.26
2023-03-04T07:28:14.345Z,8.38
2023-03-04T07:33:11.745Z,8.31
2023-03-04T07:38:08.664Z,8.19
2023-03-04T07:43:06.024Z,8.35
2023-03-04T07:48:02.629Z,8.49
2023-03-04T07:53:02.400Z,8.53
2023-03-04T07:57:59.115Z,8.59
2023-03-04T08:02:57.166Z,8.89
2023-03-04T08:07:57.265Z,9.01
2023-03-04T08:12:53.811Z,9.04
2023-03-04T08:17:50.533Z,8.79
2023-03-04T08:22:47.968Z,8.73
2023-03-04T08:27:44.765Z,8.87
2023-03-04T08:32:41.781Z,8.84
2023-03-04T08:37:38.560Z,9.05
2023-03-04T08:42:36.057Z,9.01
2023-03-04T08:47:32.687Z,9.07
2023-03-04T08:52:29.996Z,8.90
2023-03-04T08:57:30.029Z,8.97
2023-03-04T09:02:29.067Z,8.97
2023-03-04T09:07:25.977Z,9.31
2023-03-04T09:12:22.736Z,9.40
2023-03-04T09:17:21.247Z,9.31
2023-03-04T09:22:18.842Z,9.49
2023-03-04T09:27:15.577Z,9.77
2023-03-04T09:32:14.492Z,10.10
2023-03-04T09:37:11.462Z,10.12
2023-03-04T09:42:10.218Z,10.33
2023-03-04T09:47:08.234Z,10.19
2023-03-04T09:52:10.104Z,10.39
2023-03-04T09:57:17.407Z,10.45
2023-03-04T10:02:19.356Z,10.55
2023-03-04T10:07:18.857Z,10.24
2023-03-04T10:12:18.591Z,10.16
2023-03-04T10:23:10.859Z,10.90
2023-03-04T10:28:12.697Z,10.43
2023-03-04T10:33:17.291Z,10.92
2023-03-04T10:38:15.529Z,10.96
2023-03-04T10:43:19.888Z,11.29
2023-03-04T10:48:20.292Z,11.54
2023-03-04T10:53:26.622Z,11.19
2023-03-04T10:58:24.481Z,11.16
2023-03-04T11:03:30.426Z,11.19
2023-03-04T11:08:27.523Z,10.67
2023-03-04T11:13:29.968Z,10.73
2023-03-04T11:18:31.640Z,10.57
2023-03-04T11:23:32.304Z,10.75
2023-03-04T11:28:42.840Z,11.05
2023-03-04T11:33:44.195Z,11.14
2023-03-04T11:38:43.613Z,11.25
2023-03-04T11:43:42.892Z,11.21
2023-03-04T11:48:47.719Z,11.19
2023-03-04T11:53:53.414Z,11.14
2023-03-04T11:59:06.020Z,11.10
2023-03-04T12:04:07.174Z,11.27
2023-03-04T12:09:11.632Z,11.25
2023-03-04T12:14:20.322Z,11.28
2023-03-04T12:19:26.974Z,11.28
2023-03-04T12:24:31.562Z,11.55
2023-03-04T12:29:34.669Z,11.88
2023-03-04T12:34:36.827Z,11.66
2023-03-04T12:39:34.096Z,11.66
2023-03-04T12:44:34.036Z,11.86
2023-03-04T12:49:39.177Z,11.97
2023-03-04T12:54:39.093Z,12.03
2023-03-04T12:59:38.510Z,12.02
2023-03-04T13:04:40.790Z,12.11
2023-03-04T13:09:42.604Z,12.16
2023-03-04T13:14:39.929Z,12.10
2023-03-04T13:19:50.416Z,12.19
2023-03-04T13:24:50.065Z,12.24
2023-03-04T13:29:47.478Z,12.34
2023-03-04T13:34:45.749Z,12.28
2023-03-04T13:39:44.098Z,12.36
2023-03-04T13:44:58.812Z,12.29
2023-03-04T13:50:10.628Z,12.19
2023-03-04T13:55:27.287Z,12.27
2023-03-04T14:00:25.491Z,12.38
2023-03-04T14:05:22.219Z,12.34
2023-03-04T14:10:23.885Z,12.34
2023-03-04T14:15:22.486Z,12.75
2023-03-04T14:20:25.527Z,12.54
2023-03-04T14:25:23.811Z,12.61
2023-03-04T14:30:31.888Z,12.54
2023-03-04T14:35:38.131Z,12.68
2023-03-04T14:40:39.695Z,12.71
2023-03-04T14:45:36.438Z,12.59
2023-03-04T14:50:37.674Z,12.58
2023-03-04T14:55:35.439Z,12.53
2023-03-04T15:00:32.748Z,12.74
2023-03-04T15:05:30.608Z,12.75
2023-03-04T15:10:31.095Z,12.68
2023-03-04T15:15:48.248Z,12.68
2023-03-04T15:20:55.930Z,12.64
2023-03-04T15:25:53.350Z,12.68
2023-03-04T15:30:50.241Z,12.62
2023-03-04T15:35:53.505Z,12.45
2023-03-04T15:40:54.017Z,12.47
2023-03-04T15:45:51.688Z,12.41
2023-03-04T15:50:49.214Z,12.36
2023-03-04T15:55:48.327Z,12.44
2023-03-04T16:00:54.421Z,12.16
2023-03-04T16:05:54.698Z,12.20
2023-03-04T16:10:51.870Z,12.00
2023-03-04T16:15:49.367Z,11.99
2023-03-04T16:20:47.628Z,11.99
2023-03-04T16:25:44.841Z,11.87
2023-03-04T16:30:41.906Z,11.93
2023-03-04T16:35:39.457Z,11.92
2023-03-04T16:40:36.240Z,11.60
2023-03-04T16:45:35.767Z,11.77
2023-03-04T16:50:35.182Z,11.71
2023-03-04T16:55:32.800Z,11.51
2023-03-04T17:00:41.423Z,11.48
2023-03-04T17:05:38.641Z,11.54
2023-03-04T17:10:36.042Z,11.10
2023-03-04T17:15:32.926Z,11.23
2023-03-04T17:20:29.989Z,11.10
2023-03-04T17:25:26.743Z,11.10
2023-03-04T17:30:24.114Z,11.11
2023-03-04T17:35:25.144Z,11.03
2023-03-04T17:40:24.708Z,11.13
2023-03-04T17:45:21.679Z,10.94
2023-03-04T17:50:21.933Z,10.85
2023-03-04T17:55:19.761Z,10.65
2023-03-04T18:00:17.272Z,10.61
2023-03-04T18:05:14.294Z,10.71
2023-03-04T18:10:12.180Z,10.73
2023-03-04T18:15:09.252Z,10.52
2023-03-04T18:20:06.555Z,10.57
2023-03-04T18:25:13.772Z,10.68
2023-03-04T18:30:17.248Z,10.74
2023-03-04T18:35:14.441Z,10.34
2023-03-04T18:40:13.600Z,10.40
2023-03-04T18:45:12.280Z,10.41
2023-03-04T18:50:13.138Z,10.39
2023-03-04T18:55:15.157Z,10.50
2023-03-04T19:01:08.991Z,10.40
2023-03-04T19:06:10.241Z,10.37
2023-03-04T19:11:07.082Z,10.56
2023-03-04T19:16:04.053Z,10.60
2023-03-04T19:21:00.765Z,10.36
2023-03-04T19:26:00.099Z,10.49
2023-03-04T19:30:58.439Z,10.39
2023-03-04T19:35:55.145Z,10.18
2023-03-04T19:40:52.018Z,10.23
2023-03-04T19:45:53.308Z,10.21
2023-03-04T19:50:50.486Z,10.16
2023-03-04T19:55:48.857Z,10.05
2023-03-04T20:00:50.202Z,10.17
2023-03-04T20:05:47.900Z,10.14
2023-03-04T20:10:44.901Z,10.13
2023-03-04T20:15:42.607Z,10.05
2023-03-04T20:20:40.632Z,9.87
2023-03-04T20:25:40.179Z,9.76
2023-03-04T20:30:38.966Z,9.74
2023-03-04T20:35:40.062Z,9.59
2023-03-04T20:40:37.744Z,9.58
2023-03-04T20:45:35.790Z,9.65
2023-03-04T20:50:35.509Z,9.52
2023-03-04T20:55:33.935Z,9.63
2023-03-04T21:00:31.322Z,9.66
2023-03-04T21:05:27.940Z,9.67
2023-03-04T21:10:24.621Z,9.62
2023-03-04T21:15:22.576Z,9.63
2023-03-04T21:20:19.989Z,9.55
2023-03-04T21:25:19.128Z,9.53
2023-03-04T21:30:15.992Z,9.68
2023-03-04T21:35:15.822Z,9.48
2023-03-04T21:40:13.749Z,9.40
2023-03-04T21:45:10.778Z,9.48
2023-03-04T21:50:07.971Z,9.38
2023-03-04T21:55:05.051Z,9.12
2023-03-04T22:00:03.282Z,9.18
2023-03-04T22:05:08.551Z,9.06
2023-03-04T22:10:06.184Z,8.98
2023-03-04T22:15:03.759Z,8.87
2023-03-04T22:20:02.187Z,8.79
2023-03-04T22:24:59.739Z,8.48
2023-03-04T22:29:56.678Z,8.53
2023-03-04T22:34:53.954Z,8.39
2023-03-04T22:39:50.641Z,8.48
2023-03-04T22:44:48.318Z,8.69
2023-03-04T22:49:47.088Z,8.73
2023-03-04T22:54:44.531Z,8.49
2023-03-04T22:59:42.099Z,8.67
2023-03-04T23:04:39.302Z,8.60
2023-03-04T23:09:36.118Z,8.56
2023-03-04T23:14:35.354Z,8.45
2023-03-04T23:19:31.957Z,8.54
2023-03-04T23:24:34.570Z,8.53
2023-03-04T23:29:34.243Z,8.20
2023-03-04T23:34:36.451Z,8.41
2023-03-04T23:39:33.898Z,8.37
2023-03-04T23:44:30.717Z,8.16
2023-03-04T23:49:27.732Z,8.13
2023-03-04T23:54:25.396Z,8.18
2023-03-04T23:59:22.134Z,8.24
